Time;durP1;ratioP1;P1;durP2;ratioP2;P2;SDS_P1;SDS_P2;PMS_P1;PMS_P2;Temp;Humidity;BMP_temperature;BMP_pressure;BME280_temperature;BME280_humidity;BME280_pressure;Samples;Min_cycle;Max_cycle;Signal;HPM_P1;HPM_P2
2023/10/01 00:00:12;;;;;;;7.70;3.95;;;;;;;22.81;35.68;99794.53;5052703;28;20053;-39
2023/10/01 00:02:41;;;;;;;8.80;3.85;;;;;;;22.76;36.08;99789.16;5052683;28;20064;-39
2023/10/01 00:05:08;;;;;;;7.18;3.80;;;;;;;22.65;35.57;99785.69;5052864;28;20025;-41
2023/10/01 00:07:37;;;;;;;6.28;4.43;;;;;;;22.54;36.16;99786.84;5052692;28;20028;-38
2023/10/01 00:10:12;;;;;;;6.47;4.22;;;;;;;22.42;36.02;99777.16;5052448;28;20021;-41
2023/10/01 00:12:39;;;;;;;5.88;3.80;;;;;;;22.53;36.57;99777.91;5052750;28;20447;-40
2023/10/01 00:15:07;;;;;;;5.68;3.90;;;;;;;22.62;35.53;99770.81;5052635;28;20095;-40
2023/10/01 00:17:32;;;;;;;7.28;3.95;;;;;;;22.42;36.45;99771.75;5052560;28;20033;-41
2023/10/01 00:20:00;;;;;;;6.45;3.75;;;;;;;22.47;36.52;99773.63;5051770;28;20032;-41
2023/10/01 00:22:26;;;;;;;8.18;3.83;;;;;;;22.47;36.84;99768.22;5053185;28;20024;-41
2023/10/01 00:24:51;;;;;;;6.53;3.50;;;;;;;22.39;36.45;99769.63;5052975;28;20029;-39
2023/10/01 00:27:17;;;;;;;6.32;3.70;;;;;;;22.37;36.54;99774.50;5053362;28;20036;-39
2023/10/01 00:29:42;;;;;;;8.88;4.00;;;;;;;22.64;35.71;99762.41;5052848;28;20056;-38
2023/10/01 00:32:08;;;;;;;7.05;3.78;;;;;;;22.52;36.65;99764.63;5053072;28;20032;-38
2023/10/01 00:34:34;;;;;;;6.25;3.58;;;;;;;22.60;35.98;99764.88;5053207;28;20024;-39
2023/10/01 00:36:59;;;;;;;5.78;3.83;;;;;;;22.81;36.27;99768.22;5052657;28;20094;-41
2023/10/01 00:39:25;;;;;;;6.05;3.60;;;;;;;22.81;36.03;99762.78;5052965;28;20532;-40
2023/10/01 00:41:52;;;;;;;7.20;3.83;;;;;;;22.57;37.03;99767.31;5053035;28;20027;-40
2023/10/01 00:44:17;;;;;;;8.70;3.78;;;;;;;22.34;36.89;99760.72;5052625;28;20031;-40
2023/10/01 00:46:43;;;;;;;6.32;3.90;;;;;;;22.48;37.18;99758.97;5052746;28;20025;-39
2023/10/01 00:49:08;;;;;;;7.20;4.00;;;;;;;22.67;37.21;99771.84;5052470;28;20025;-39
2023/10/01 00:51:34;;;;;;;7.53;3.97;;;;;;;22.87;36.63;99777.13;5052424;28;20031;-39
2023/10/01 00:54:02;;;;;;;7.63;3.78;;;;;;;22.77;35.98;99767.16;5052603;28;20098;-41
2023/10/01 00:56:28;;;;;;;5.97;3.72;;;;;;;22.62;36.18;99764.59;5052206;28;20044;-39
2023/10/01 00:58:53;;;;;;;8.30;3.55;;;;;;;22.85;35.49;99760.31;5052468;28;20044;-39
2023/10/01 01:01:19;;;;;;;5.53;3.22;;;;;;;22.57;35.79;99757.28;5052413;28;20447;-39
2023/10/01 01:03:52;;;;;;;8.07;3.60;;;;;;;22.58;36.10;99756.19;5052250;28;20107;-38
2023/10/01 01:06:23;;;;;;;6.03;3.60;;;;;;;22.59;36.69;99762.44;5052319;28;20029;-38
2023/10/01 01:08:52;;;;;;;9.02;3.75;;;;;;;22.78;36.36;99754.41;5052446;28;20024;-39
2023/10/01 01:11:19;;;;;;;4.80;3.60;;;;;;;22.78;35.61;99749.78;5052221;28;20029;-39
2023/10/01 01:13:45;;;;;;;6.35;3.60;;;;;;;22.76;36.04;99754.69;5052322;28;20024;-39
2023/10/01 01:16:15;;;;;;;6.78;3.65;;;;;;;22.21;36.97;99748.56;5052026;28;20492;-39
2023/10/01 01:18:44;;;;;;;5.38;3.72;;;;;;;22.37;37.05;99755.53;5052016;28;20025;-39
2023/10/01 01:21:13;;;;;;;7.03;3.55;;;;;;;22.44;36.48;99752.50;5052335;28;20370;-39
2023/10/01 01:23:45;;;;;;;5.53;3.65;;;;;;;22.36;36.49;99743.06;5052139;28;20441;-39
2023/10/01 01:26:13;;;;;;;9.80;3.63;;;;;;;22.59;35.96;99741.53;5051800;28;20025;-38
2023/10/01 01:28:41;;;;;;;5.60;3.58;;;;;;;22.36;36.51;99748.47;5052125;28;20017;-38
2023/10/01 01:31:08;;;;;;;8.40;3.58;;;;;;;22.24;36.78;99751.53;5051546;28;20025;-38
2023/10/01 01:33:44;;;;;;;6.63;3.75;;;;;;;22.14;36.74;99751.59;5051628;28;20021;-39
2023/10/01 01:36:10;;;;;;;8.40;3.47;;;;;;;22.23;37.18;99749.88;5051929;28;20032;-39
2023/10/01 01:38:38;;;;;;;6.35;3.70;;;;;;;22.23;37.54;99747.16;5052201;28;20156;-39
2023/10/01 01:41:06;;;;;;;7.87;3.67;;;;;;;22.13;37.53;99743.72;5051720;28;20032;-39
2023/10/01 01:43:31;;;;;;;9.68;3.92;;;;;;;22.35;37.25;99746.03;5051616;28;20477;-40
2023/10/01 01:46:03;;;;;;;7.90;4.05;;;;;;;22.54;37.94;99738.88;5051628;28;20033;-39
2023/10/01 01:51:00;;;;;;;7.30;3.88;;;;;;;22.34;36.83;99747.97;5051748;28;20366;-39
2023/10/01 01:53:26;;;;;;;8.50;3.63;;;;;;;22.43;36.23;99738.13;5051334;28;20077;-40
2023/10/01 01:55:56;;;;;;;7.32;4.03;;;;;;;22.30;36.86;99746.09;5051527;28;20024;-39
2023/10/01 01:58:24;;;;;;;5.63;3.70;;;;;;;22.02;36.85;99748.38;5051461;28;20028;-39
2023/10/01 02:01:08;;;;;;;8.00;3.78;;;;;;;22.22;37.98;99755.59;5051153;28;20102;-40
2023/10/01 02:03:38;;;;;;;6.05;3.78;;;;;;;22.35;36.50;99755.00;5051202;28;20858;-40
2023/10/01 02:06:07;;;;;;;7.13;3.72;;;;;;;22.20;37.38;99750.47;5051227;28;20021;-40
2023/10/01 02:08:58;;;;;;;7.28;3.60;;;;;;;22.52;36.38;99759.22;5051012;28;20032;-39
2023/10/01 02:11:25;;;;;;;6.07;3.53;;;;;;;22.58;36.58;99758.91;5051134;28;20624;-39
2023/10/01 02:13:54;;;;;;;7.75;3.85;;;;;;;22.34;36.51;99758.00;5051367;28;20040;-39
2023/10/01 02:19:11;;;;;;;9.57;3.80;;;;;;;22.44;36.67;99752.50;5050972;28;19974;-40
2023/10/01 02:21:42;;;;;;;6.93;3.72;;;;;;;22.15;37.06;99755.91;5050850;28;20035;-40
2023/10/01 02:24:23;;;;;;;4.65;3.50;;;;;;;22.16;37.08;99754.81;5050917;28;20025;-40
2023/10/01 02:26:52;;;;;;;13.65;3.80;;;;;;;22.12;36.97;99751.03;5051218;28;20075;-40
2023/10/01 02:29:19;;;;;;;5.10;3.60;;;;;;;22.48;36.47;99752.75;5050781;28;20040;-40
2023/10/01 02:31:55;;;;;;;6.10;3.80;;;;;;;22.37;36.49;99752.00;5051031;28;20477;-41
2023/10/01 02:34:21;;;;;;;8.82;4.05;;;;;;;22.43;36.39;99761.75;5051079;28;20028;-40
2023/10/01 02:36:47;;;;;;;9.63;3.83;;;;;;;22.45;37.05;99759.56;5050855;28;20040;-40
2023/10/01 02:39:28;;;;;;;6.45;3.65;;;;;;;22.36;37.26;99750.41;5051020;28;20452;-44
2023/10/01 02:44:49;;;;;;;7.13;3.60;;;;;;;22.63;36.83;99741.78;5050246;28;20120;-39
2023/10/01 02:47:20;;;;;;;6.43;3.63;;;;;;;22.16;37.45;99738.56;5055129;28;20104;-39
2023/10/01 02:49:50;;;;;;;6.75;3.92;;;;;;;22.34;36.90;99747.16;5055169;28;20122;-40
2023/10/01 02:52:18;;;;;;;8.38;3.65;;;;;;;22.13;37.70;99739.13;5054699;28;20021;-39
2023/10/01 02:54:44;;;;;;;5.70;3.47;;;;;;;22.51;36.79;99742.16;5054749;28;20096;-38
2023/10/01 02:57:12;;;;;;;4.90;3.53;;;;;;;22.40;37.00;99746.81;5054980;28;20527;-41
2023/10/01 03:02:30;;;;;;;9.05;4.00;;;;;;;22.65;36.79;99745.81;5055022;28;20458;-39
2023/10/01 03:04:56;;;;;;;5.75;3.60;;;;;;;22.57;36.47;99737.50;5054647;28;20033;-40
2023/10/01 03:07:24;;;;;;;8.18;3.90;;;;;;;22.60;37.15;99740.47;5054532;28;20137;-40
2023/10/01 03:09:53;;;;;;;7.97;3.80;;;;;;;22.74;36.58;99740.59;5054495;28;20043;-40
2023/10/01 03:12:25;;;;;;;5.60;3.70;;;;;;;22.56;37.07;99733.16;5054476;28;20033;-41
2023/10/01 03:17:38;;;;;;;5.82;3.60;;;;;;;22.55;38.46;99734.25;5054446;28;20075;-40
2023/10/01 03:22:53;;;;;;;5.97;3.78;;;;;;;22.65;36.90;99740.38;5054557;28;20546;-40
2023/10/01 03:25:20;;;;;;;6.20;3.83;;;;;;;22.72;37.48;99737.38;5054178;28;20041;-39
2023/10/01 03:27:45;;;;;;;9.40;3.72;;;;;;;22.63;36.69;99726.31;5054428;28;20028;-40
2023/10/01 03:30:23;;;;;;;6.55;3.80;;;;;;;22.63;36.56;99734.44;5054170;28;20451;-40
2023/10/01 03:32:49;;;;;;;8.88;3.60;;;;;;;22.49;36.59;99711.81;5054444;28;20016;-38
2023/10/01 03:35:14;;;;;;;7.22;4.00;;;;;;;22.68;36.63;99736.31;5054152;28;20454;-42
2023/10/01 03:37:43;;;;;;;4.97;3.65;;;;;;;22.62;37.26;99727.41;5054017;28;20118;-39
2023/10/01 03:40:21;;;;;;;6.05;4.00;;;;;;;22.68;37.66;99743.66;5053830;28;20063;-39
2023/10/01 03:42:53;;;;;;;7.10;3.60;;;;;;;22.69;36.46;99745.25;5054238;28;20036;-40
2023/10/01 03:45:25;;;;;;;6.28;3.80;;;;;;;22.55;36.66;99740.47;5053851;28;20025;-40
2023/10/01 03:47:57;;;;;;;5.32;3.63;;;;;;;22.70;37.33;99739.56;5053807;28;20028;-39
2023/10/01 03:50:25;;;;;;;8.65;4.00;;;;;;;22.87;37.06;99746.47;5053800;28;20025;-40
2023/10/01 03:52:53;;;;;;;8.03;4.10;;;;;;;22.58;37.12;99742.66;5053475;28;20021;-40
2023/10/01 03:55:26;;;;;;;8.88;3.80;;;;;;;22.47;37.09;99743.81;5053574;28;20029;-38
2023/10/01 03:57:54;;;;;;;5.55;3.50;;;;;;;22.42;37.00;99741.13;5053605;28;20354;-41
2023/10/01 04:00:31;;;;;;;6.57;3.70;;;;;;;22.24;37.27;99740.69;5053386;28;20412;-38
2023/10/01 04:02:56;;;;;;;5.95;3.70;;;;;;;22.51;37.43;99742.16;5053910;28;20044;-39
2023/10/01 04:05:23;;;;;;;4.40;3.47;;;;;;;22.13;38.58;99749.97;5053968;28;20025;-39
2023/10/01 04:07:49;;;;;;;7.28;3.72;;;;;;;22.24;37.54;99748.81;5054196;28;20071;-39
2023/10/01 04:10:38;;;;;;;11.30;4.47;;;;;;;22.39;37.31;99747.09;5054071;28;20118;-39
2023/10/01 04:13:20;;;;;;;4.97;3.75;;;;;;;22.37;37.58;99752.00;5053687;28;20096;-39
2023/10/01 04:15:48;;;;;;;4.40;3.40;;;;;;;22.49;36.98;99760.59;5053742;28;20525;-39
2023/10/01 04:23:31;;;;;;;8.55;3.60;;;;;;;22.12;38.03;99759.16;5053871;28;20068;-40
2023/10/01 04:26:00;;;;;;;6.43;3.80;;;;;;;21.75;38.48;99768.56;5053869;28;20052;-39
2023/10/01 04:28:27;;;;;;;10.52;4.10;;;;;;;21.74;38.13;99766.13;5053552;28;20033;-39
2023/10/01 04:30:52;;;;;;;9.70;3.70;;;;;;;22.17;38.76;99766.47;5053595;28;20029;-39
2023/10/01 04:33:23;;;;;;;8.25;3.53;;;;;;;21.98;38.26;99777.13;5053801;28;20087;-39
2023/10/01 04:35:58;;;;;;;6.57;3.90;;;;;;;22.23;38.19;99781.59;5053367;28;20469;-40
2023/10/01 04:38:32;;;;;;;8.23;3.85;;;;;;;22.44;37.31;99779.59;5053774;28;20173;-40
2023/10/01 04:41:03;;;;;;;5.78;3.83;;;;;;;22.40;38.24;99778.56;5053317;28;20393;-40
2023/10/01 04:43:34;;;;;;;5.32;3.80;;;;;;;22.20;37.74;99784.84;5053258;28;20411;-38
2023/10/01 04:46:08;;;;;;;5.78;3.88;;;;;;;22.47;37.43;99784.47;5053138;28;20033;-38
2023/10/01 04:48:36;;;;;;;8.00;4.13;;;;;;;22.99;36.40;99790.31;5053453;28;20063;-39
2023/10/01 04:51:07;;;;;;;6.97;3.75;;;;;;;22.76;36.95;99794.56;5053254;28;20413;-38
2023/10/01 04:53:33;;;;;;;16.13;3.88;;;;;;;22.65;36.83;99791.13;5052740;28;20515;-40
2023/10/01 04:56:10;;;;;;;6.10;3.50;;;;;;;22.87;36.49;99790.69;5053283;28;20090;-40
2023/10/01 04:58:36;;;;;;;8.23;3.58;;;;;;;23.18;36.15;99801.31;5053014;28;20055;-40
2023/10/01 05:01:10;;;;;;;7.32;3.70;;;;;;;23.11;36.34;99804.34;5052628;28;20053;-39
2023/10/01 05:03:39;;;;;;;4.72;3.67;;;;;;;23.51;35.98;99810.47;5052445;28;20112;-39
2023/10/01 05:06:11;;;;;;;7.13;4.05;;;;;;;23.74;35.41;99806.16;5052424;28;20045;-41
2023/10/01 05:08:40;;;;;;;5.90;3.60;;;;;;;23.59;36.32;99818.00;5052924;28;20032;-40
2023/10/01 05:11:13;;;;;;;10.30;3.95;;;;;;;23.83;35.66;99814.50;5052781;28;20029;-41
2023/10/01 05:13:42;;;;;;;8.23;3.95;;;;;;;23.92;35.30;99818.19;5052896;28;20036;-40
2023/10/01 05:16:14;;;;;;;6.07;3.50;;;;;;;24.05;34.96;99816.69;5052720;28;20111;-40
2023/10/01 05:18:43;;;;;;;8.00;3.60;;;;;;;24.24;34.59;99816.69;5052647;28;20108;-41
2023/10/01 05:21:12;;;;;;;6.40;3.65;;;;;;;24.91;33.80;99829.34;5053047;28;20028;-40
2023/10/01 05:23:41;;;;;;;6.05;3.80;;;;;;;25.16;33.31;99828.13;5052847;28;20025;-40
2023/10/01 05:26:08;;;;;;;5.90;3.70;;;;;;;25.70;33.02;99826.63;5052704;28;20053;-40
2023/10/01 05:28:36;;;;;;;6.97;3.90;;;;;;;25.47;32.90;99833.84;5052823;28;20465;-41
2023/10/01 05:31:24;;;;;;;5.22;3.92;;;;;;;25.55;32.60;99835.06;5052149;28;20024;-40
2023/10/01 05:33:52;;;;;;;7.50;3.90;;;;;;;26.06;32.17;99834.09;5052123;28;20020;-42
2023/10/01 05:36:18;;;;;;;6.63;4.00;;;;;;;26.23;31.56;99835.38;5052405;28;20029;-39
2023/10/01 05:38:44;;;;;;;7.05;4.30;;;;;;;26.13;31.94;99837.22;5052220;28;20033;-41
2023/10/01 05:41:13;;;;;;;6.45;4.03;;;;;;;26.59;31.28;99823.69;5051999;28;20037;-41
2023/10/01 05:43:43;;;;;;;7.17;3.87;;;;;;;26.86;30.85;99836.44;5052128;28;20033;-40
2023/10/01 05:46:11;;;;;;;7.43;3.70;;;;;;;27.11;30.40;99832.25;5052252;28;20473;-40
2023/10/01 05:48:41;;;;;;;8.23;3.72;;;;;;;26.98;30.88;99830.41;5052132;28;20025;-41
2023/10/01 05:51:12;;;;;;;10.07;4.22;;;;;;;26.49;30.94;99827.44;5052402;28;20025;-41
2023/10/01 05:53:38;;;;;;;10.40;3.90;;;;;;;26.98;30.49;99828.50;5051654;28;20031;-41
2023/10/01 05:56:06;;;;;;;10.85;4.30;;;;;;;27.95;29.61;99840.75;5052062;28;20072;-39
2023/10/01 05:58:32;;;;;;;5.60;3.60;;;;;;;27.75;29.21;99828.44;5051950;28;20029;-38
2023/10/01 06:00:57;;;;;;;8.80;3.97;;;;;;;27.16;30.24;99836.81;5051488;28;20056;-40
2023/10/01 06:03:25;;;;;;;8.80;3.80;;;;;;;26.89;30.28;99839.34;5051919;28;20029;-40
2023/10/01 06:05:59;;;;;;;7.07;3.63;;;;;;;27.21;30.33;99840.22;5051752;28;20122;-41
2023/10/01 06:08:25;;;;;;;9.23;4.05;;;;;;;27.13;29.78;99840.16;5051705;28;20029;-40
2023/10/01 06:11:05;;;;;;;4.28;3.35;;;;;;;27.35;29.88;99845.63;5051866;28;20059;-40
2023/10/01 06:13:38;;;;;;;5.57;3.63;;;;;;;27.04;30.21;99851.03;5051499;28;20543;-40
2023/10/01 06:16:15;;;;;;;8.10;3.55;;;;;;;26.22;31.27;99850.16;5051539;28;20040;-38
2023/10/01 06:18:42;;;;;;;11.13;3.80;;;;;;;25.89;31.49;99855.69;5051007;28;20053;-38
2023/10/01 06:21:11;;;;;;;12.10;3.80;;;;;;;26.00;31.57;99856.31;5051277;28;20439;-40
2023/10/01 06:23:49;;;;;;;5.88;3.78;;;;;;;25.85;31.49;99850.00;5050636;28;20035;-40
2023/10/01 06:26:19;;;;;;;8.27;3.95;;;;;;;26.08;31.34;99856.44;5050985;28;20039;-42
2023/10/01 06:28:45;;;;;;;7.45;4.53;;;;;;;26.10;31.55;99859.66;5050859;28;20031;-39
2023/10/01 06:31:11;;;;;;;6.47;3.80;;;;;;;25.77;32.07;99874.47;5050535;28;20041;-39
2023/10/01 06:33:38;;;;;;;7.72;3.60;;;;;;;25.63;31.95;99869.81;5051098;28;20021;-39
2023/10/01 06:36:26;;;;;;;5.00;3.83;;;;;;;25.89;31.71;99866.56;5050559;28;20425;-41
2023/10/01 06:38:53;;;;;;;8.50;4.05;;;;;;;25.17;32.70;99870.59;5050502;28;20519;-38
2023/10/01 06:41:25;;;;;;;7.88;4.15;;;;;;;24.77;33.27;99875.56;5050826;28;20033;-40
2023/10/01 06:43:54;;;;;;;6.78;3.78;;;;;;;24.72;33.52;99878.34;5050499;28;20041;-40
2023/10/01 06:46:27;;;;;;;6.18;3.63;;;;;;;25.06;33.25;99877.31;5050529;28;20025;-38
2023/10/01 06:48:58;;;;;;;7.03;3.90;;;;;;;25.26;33.64;99881.63;5050562;28;20032;-40
2023/10/01 06:51:25;;;;;;;8.10;4.00;;;;;;;25.36;33.83;99887.72;5050130;28;20036;-39
2023/10/01 06:54:05;;;;;;;6.75;3.53;;;;;;;24.81;36.03;99879.31;5050272;28;20119;-40
2023/10/01 06:56:33;;;;;;;5.25;4.00;;;;;;;24.90;35.40;99877.53;5050537;28;20032;-40
2023/10/01 07:01:48;;;;;;;6.50;3.78;;;;;;;24.54;35.04;99883.50;5050203;28;20049;-40
2023/10/01 07:04:20;;;;;;;4.55;3.60;;;;;;;24.44;35.19;99878.16;5049945;28;20032;-41
2023/10/01 07:06:50;;;;;;;8.77;3.83;;;;;;;24.17;35.11;99884.22;5050002;28;20032;-40
2023/10/01 07:09:34;;;;;;;5.97;3.80;;;;;;;24.40;35.08;99883.34;5050041;28;20353;-40
2023/10/01 07:12:01;;;;;;;7.72;3.60;;;;;;;24.22;34.86;99891.47;5050434;28;20028;-39
2023/10/01 07:14:38;;;;;;;5.38;3.65;;;;;;;24.48;34.75;99890.06;5050311;28;20017;-39
2023/10/01 07:17:13;;;;;;;5.60;3.60;;;;;;;24.23;35.00;99899.34;5050107;28;20028;-40
2023/10/01 07:19:42;;;;;;;6.97;3.72;;;;;;;24.50;34.35;99896.03;5050433;28;20021;-42
2023/10/01 07:22:14;;;;;;;8.57;4.10;;;;;;;24.51;34.45;99894.13;5050360;28;20503;-40
2023/10/01 07:24:41;;;;;;;7.13;4.18;;;;;;;24.72;34.11;99895.47;5050040;28;20098;-41
2023/10/01 07:27:10;;;;;;;6.80;3.75;;;;;;;24.44;34.35;99897.19;5049838;28;20025;-41
2023/10/01 07:29:44;;;;;;;5.60;3.70;;;;;;;24.71;33.83;99895.75;5051507;28;20411;-41
2023/10/01 07:32:14;;;;;;;10.60;4.07;;;;;;;24.61;34.27;99901.34;5052416;28;20024;-41
2023/10/01 07:34:45;;;;;;;7.57;3.92;;;;;;;24.72;34.30;99905.56;5052521;28;20013;-40
2023/10/01 07:37:23;;;;;;;6.13;3.65;;;;;;;24.39;34.40;99903.50;5052382;28;20060;-40
2023/10/01 07:39:52;;;;;;;6.85;4.00;;;;;;;24.62;34.26;99916.56;5052456;28;20140;-40
2023/10/01 07:42:17;;;;;;;6.25;3.90;;;;;;;24.40;34.39;99910.56;5052443;28;20079;-40
2023/10/01 07:44:45;;;;;;;7.10;3.90;;;;;;;24.57;34.34;99910.09;5052468;28;20115;-40
2023/10/01 07:47:28;;;;;;;6.65;3.63;;;;;;;23.92;34.96;99920.66;5052933;28;20028;-39
2023/10/01 07:49:56;;;;;;;8.05;3.80;;;;;;;24.34;34.94;99919.88;5052365;28;20120;-39
2023/10/01 07:52:23;;;;;;;5.13;3.45;;;;;;;24.28;34.65;99903.94;5052043;28;20100;-39
2023/10/01 07:54:49;;;;;;;5.93;4.20;;;;;;;24.58;34.55;99917.16;5052223;28;20483;-40
2023/10/01 07:57:27;;;;;;;7.00;4.25;;;;;;;24.54;34.55;99921.56;5052340;28;20064;-41
2023/10/01 07:59:53;;;;;;;6.57;3.70;;;;;;;24.18;34.91;99918.47;5052501;28;20059;-38
2023/10/01 08:02:21;;;;;;;7.03;4.20;;;;;;;24.34;34.99;99922.59;5052441;28;20032;-38
2023/10/01 08:07:24;;;;;;;5.63;3.63;;;;;;;24.98;34.49;99923.13;5052477;28;20087;-40
2023/10/01 08:09:52;;;;;;;7.13;3.90;;;;;;;24.93;34.39;99927.84;5052113;28;20081;-40
2023/10/01 08:13:06;;;;;;;8.10;3.92;;;;;;;24.83;34.72;99930.69;5052377;28;20063;-39
2023/10/01 08:15:29;;;;;;;6.07;3.92;;;;;;;25.00;34.06;99932.91;5048917;28;20049;-40
2023/10/01 08:18:19;;;;;;;7.88;4.07;;;;;;;24.89;34.35;99933.06;5052573;28;20028;-39
2023/10/01 08:20:57;;;;;;;7.63;3.80;;;;;;;24.94;34.50;99932.16;5052559;28;20032;-39
2023/10/01 08:23:24;;;;;;;4.57;3.70;;;;;;;25.13;34.29;99929.44;5052246;28;20021;-41
2023/10/01 08:25:54;;;;;;;6.38;4.07;;;;;;;25.60;33.60;99935.78;5051707;28;20477;-40
2023/10/01 08:28:29;;;;;;;6.78;3.90;;;;;;;25.79;33.20;99938.44;5051421;28;20099;-41
2023/10/01 08:31:43;;;;;;;7.50;3.78;;;;;;;25.82;33.20;99939.78;5051726;28;20025;-41
2023/10/01 08:33:51;;;;;;;6.07;3.95;;;;;;;25.79;33.03;99937.66;5051596;28;20025;-40
2023/10/01 08:36:17;;;;;;;5.70;4.00;;;;;;;25.80;33.13;99933.78;5051524;28;20090;-41
2023/10/01 08:39:19;;;;;;;6.35;3.90;;;;;;;25.70;33.42;99934.78;5051591;28;20068;-40
2023/10/01 08:41:47;;;;;;;7.45;3.95;;;;;;;25.67;33.43;99938.94;5050325;28;20033;-40
2023/10/01 08:44:19;;;;;;;7.03;4.30;;;;;;;25.79;33.53;99943.91;5051504;28;20021;-41
2023/10/01 08:46:45;;;;;;;8.70;3.90;;;;;;;25.82;33.42;99939.78;5051195;28;20484;-41
2023/10/01 08:49:23;;;;;;;8.35;4.22;;;;;;;25.97;33.32;99939.53;5051423;28;20484;-40
2023/10/01 08:52:18;;;;;;;8.25;4.13;;;;;;;26.10;32.97;99932.44;5051003;28;20488;-40
2023/10/01 08:54:43;;;;;;;7.38;3.70;;;;;;;25.71;33.54;99939.16;5051420;28;20174;-39
2023/10/01 08:57:17;;;;;;;7.40;4.10;;;;;;;26.05;33.14;99938.03;5049853;28;20568;-40
2023/10/01 08:59:43;;;;;;;5.47;4.10;;;;;;;26.42;32.58;99939.72;5051122;28;20041;-41
2023/10/01 09:02:18;;;;;;;5.38;3.83;;;;;;;26.41;32.57;99935.38;5051530;28;20496;-40
2023/10/01 09:04:45;;;;;;;8.73;4.20;;;;;;;27.16;31.96;99930.47;5052226;28;20115;-40
2023/10/01 09:07:21;;;;;;;8.80;4.20;;;;;;;27.30;31.43;99930.41;5052296;28;20401;-40
2023/10/01 09:10:15;;;;;;;5.40;3.78;;;;;;;26.92;31.97;99928.84;5052278;28;20028;-40
2023/10/01 09:12:46;;;;;;;6.97;4.22;;;;;;;27.06;31.88;99920.59;5052368;28;20301;-42
2023/10/01 09:15:27;;;;;;;6.93;4.05;;;;;;;27.45;31.37;99931.97;5052445;28;20029;-40
2023/10/01 09:17:57;;;;;;;8.02;4.53;;;;;;;27.42;31.31;99918.94;5052289;28;20108;-38
2023/10/01 09:21:06;;;;;;;6.03;4.07;;;;;;;28.10;30.72;99919.59;5052060;28;20032;-42
2023/10/01 09:23:58;;;;;;;7.38;3.90;;;;;;;28.22;30.54;99924.50;5032259;28;20037;-39
2023/10/01 09:29:25;;;;;;;6.70;4.00;;;;;;;29.17;29.15;99925.78;5052283;28;20047;-41
2023/10/01 09:31:52;;;;;;;7.60;3.92;;;;;;;29.50;28.94;99917.81;5051401;28;20453;-41
2023/10/01 09:35:30;;;;;;;5.53;3.90;;;;;;;29.53;28.44;99911.69;5051473;28;20385;-38
2023/10/01 09:37:34;;;;;;;11.15;4.35;;;;;;;29.16;28.66;99916.75;5046630;28;20400;-45
2023/10/01 09:43:00;;;;;;;5.65;3.83;;;;;;;29.66;28.20;99917.28;5051800;28;20056;-39
2023/10/01 09:45:37;;;;;;;8.55;4.28;;;;;;;29.84;28.04;99912.59;5051733;28;20028;-42
2023/10/01 09:48:05;;;;;;;5.85;3.85;;;;;;;29.52;28.26;99918.28;5051851;28;20108;-41
2023/10/01 09:50:42;;;;;;;6.13;4.07;;;;;;;29.60;28.38;99901.00;5051866;28;20741;-41
2023/10/01 09:53:12;;;;;;;5.35;4.38;;;;;;;30.28;27.72;99908.50;5051521;28;20028;-41
2023/10/01 09:55:48;;;;;;;6.47;4.03;;;;;;;29.98;27.90;99907.69;5051759;28;20508;-41
2023/10/01 09:58:29;;;;;;;9.60;4.05;;;;;;;30.35;27.99;99911.56;5051806;28;20508;-41
2023/10/01 10:01:08;;;;;;;5.85;4.00;;;;;;;30.35;27.19;99908.03;5051307;28;20090;-42
2023/10/01 10:03:37;;;;;;;5.07;3.80;;;;;;;30.43;26.99;99914.59;5051493;28;20040;-41
2023/10/01 10:06:07;;;;;;;9.60;4.22;;;;;;;30.52;27.24;99912.56;5050959;28;20110;-40
2023/10/01 10:08:37;;;;;;;5.78;3.90;;;;;;;30.67;26.89;99911.16;5050807;28;20166;-38
2023/10/01 10:11:08;;;;;;;7.97;4.30;;;;;;;31.16;26.28;99904.00;5050913;28;20021;-42
2023/10/01 10:16:30;;;;;;;6.68;3.90;;;;;;;29.67;27.81;99892.28;5050309;28;20063;-42
2023/10/01 10:19:04;;;;;;;6.85;3.70;;;;;;;30.21;27.07;99897.22;5050840;28;20021;-42
2023/10/01 10:24:34;;;;;;;5.22;3.47;;;;;;;30.17;27.39;99894.34;5050566;28;20025;-40
2023/10/01 10:27:15;;;;;;;5.30;3.80;;;;;;;30.16;27.54;99887.25;5050817;28;20025;-40
2023/10/01 10:29:46;;;;;;;5.60;3.95;;;;;;;30.53;26.93;99897.72;5051524;28;20210;-41
2023/10/01 10:32:15;;;;;;;7.93;4.35;;;;;;;30.37;27.39;99892.81;5051399;28;20024;-41
2023/10/01 10:35:03;;;;;;;6.97;4.00;;;;;;;31.21;26.32;99891.19;5051335;28;20028;-45
2023/10/01 10:37:35;;;;;;;5.07;3.95;;;;;;;30.82;26.12;99887.78;5051522;28;20048;-41
2023/10/01 10:40:12;;;;;;;5.90;4.07;;;;;;;30.69;26.42;99897.91;5051625;28;20032;-41
2023/10/01 10:42:39;;;;;;;6.78;4.30;;;;;;;30.90;26.34;99884.19;5050947;28;20029;-41
2023/10/01 10:45:42;;;;;;;4.95;3.75;;;;;;;31.05;26.06;99886.31;5051281;28;20033;-42
2023/10/01 10:47:59;;;;;;;8.80;4.07;;;;;;;30.82;25.83;99887.78;5051055;28;20550;-40
2023/10/01 10:50:44;;;;;;;6.45;3.67;;;;;;;31.05;25.91;99883.56;5051432;28;20104;-40
2023/10/01 10:53:19;;;;;;;9.18;4.20;;;;;;;30.94;25.81;99882.41;5050975;28;20021;-43
2023/10/01 10:56:04;;;;;;;6.00;3.70;;;;;;;31.08;25.57;99871.91;5051351;28;20103;-42
2023/10/01 10:58:41;;;;;;;8.30;3.85;;;;;;;30.86;25.60;99870.28;5051063;28;20496;-40
2023/10/01 11:01:20;;;;;;;5.75;4.03;;;;;;;31.20;25.12;99862.09;5051230;28;20049;-39
2023/10/01 11:03:50;;;;;;;7.47;3.72;;;;;;;30.71;25.48;99870.91;5052558;28;20040;-40
2023/10/01 11:06:42;;;;;;;7.00;3.53;;;;;;;30.56;25.66;99872.34;5055444;28;20404;-39
2023/10/01 11:09:25;;;;;;;6.18;3.70;;;;;;;30.76;25.48;99863.28;5055223;28;20033;-42
2023/10/01 11:12:22;;;;;;;5.47;3.65;;;;;;;31.23;25.40;99851.22;5055188;28;20029;-40
2023/10/01 11:17:43;;;;;;;6.10;3.58;;;;;;;31.36;25.01;99846.56;5055866;28;20036;-40
2023/10/01 11:20:22;;;;;;;4.00;3.60;;;;;;;31.74;24.46;99854.53;5055078;28;20029;-40
2023/10/01 11:22:49;;;;;;;4.47;3.63;;;;;;;31.76;24.20;99849.50;5054983;28;20480;-42
2023/10/01 11:25:15;;;;;;;5.18;3.55;;;;;;;32.11;23.84;99851.78;5054887;28;20580;-40
2023/10/01 11:27:53;;;;;;;6.47;3.50;;;;;;;32.57;23.64;99837.06;5054612;28;20033;-42
2023/10/01 11:30:24;;;;;;;6.53;4.00;;;;;;;32.15;23.53;99830.69;5055057;28;20025;-43
2023/10/01 11:32:58;;;;;;;5.65;3.88;;;;;;;32.71;23.54;99831.94;5054740;28;20075;-40
2023/10/01 11:35:32;;;;;;;4.68;3.67;;;;;;;32.15;23.79;99832.66;5054251;28;20138;-42
2023/10/01 11:38:07;;;;;;;6.95;4.05;;;;;;;32.23;23.88;99836.41;5054877;28;20055;-40
2023/10/01 11:43:27;;;;;;;6.38;4.05;;;;;;;32.47;23.51;99830.84;5054754;28;20116;-41
2023/10/01 11:46:19;;;;;;;4.40;3.70;;;;;;;32.51;23.29;99828.19;5054545;28;20457;-43
2023/10/01 11:48:59;;;;;;;6.95;6.03;;;;;;;32.32;23.58;99826.06;5054410;28;20059;-40
2023/10/01 11:51:54;;;;;;;8.63;5.57;;;;;;;32.65;23.15;99820.38;5054427;28;20025;-41
2023/10/01 11:54:52;;;;;;;7.50;3.92;;;;;;;32.05;23.63;99814.66;5032517;28;20029;-42
2023/10/01 11:57:22;;;;;;;5.68;3.78;;;;;;;31.85;23.94;99810.06;5033744;28;20051;-41
2023/10/01 11:59:54;;;;;;;6.82;3.90;;;;;;;32.21;23.55;99811.97;5033614;28;20412;-42
2023/10/01 12:02:33;;;;;;;4.80;3.78;;;;;;;32.37;23.75;99808.50;5033652;28;20029;-42
2023/10/01 12:05:06;;;;;;;5.95;3.67;;;;;;;32.51;22.75;99797.91;5033528;28;20068;-42
2023/10/01 12:07:44;;;;;;;6.13;4.00;;;;;;;33.10;22.96;99799.97;5033417;28;20038;-41
2023/10/01 12:10:31;;;;;;;7.80;4.90;;;;;;;33.72;21.57;99794.03;5033596;28;20036;-41
2023/10/01 12:12:57;;;;;;;28.92;20.50;;;;;;;33.21;22.20;99791.19;5033261;28;20025;-41
2023/10/01 12:15:36;;;;;;;10.25;6.20;;;;;;;33.37;22.31;99785.66;5032193;28;20053;-45
2023/10/01 12:18:13;;;;;;;5.68;4.20;;;;;;;32.80;22.54;99779.44;5033658;28;20068;-41
2023/10/01 12:20:47;;;;;;;5.63;3.70;;;;;;;32.63;22.96;99781.34;5033265;28;20498;-42
2023/10/01 12:23:19;;;;;;;6.10;3.85;;;;;;;32.73;22.92;99782.81;5033214;28;20105;-40
2023/10/01 12:25:47;;;;;;;7.50;4.07;;;;;;;32.70;22.86;99767.78;5039765;28;20032;-40
2023/10/01 12:29:11;;;;;;;;;;;;;;;32.90;22.96;99776.16;5051465;28;20382;-41
2023/10/01 12:31:08;;;;;;;5.38;4.00;;;;;;;32.72;22.94;99776.50;5051958;28;20307;-42
2023/10/01 12:33:40;;;;;;;6.25;4.00;;;;;;;32.62;22.79;99765.19;5052824;28;20044;-42
2023/10/01 12:44:34;;;;;;;5.38;3.58;;;;;;;33.07;21.92;99764.00;5052713;28;20747;-41
2023/10/01 12:47:07;;;;;;;7.72;3.92;;;;;;;33.24;22.27;99752.69;5052316;28;20029;-41
2023/10/01 12:49:36;;;;;;;5.38;4.03;;;;;;;32.80;22.37;99751.91;5052510;28;20025;-44